sensor_id;sensor_type;location;lat;lon;timestamp;P1;durP1;ratioP1;P2;durP2;ratioP2
56997;SDS011;42890;44.244;22.530;2022-09-28T00:01:29;13.52;;;9.10;;
56997;SDS011;42890;44.244;22.530;2022-09-28T00:03:55;14.85;;;9.70;;
56997;SDS011;42890;44.244;22.530;2022-09-28T00:06:24;9.45;;;7.07;;
56997;SDS011;42890;44.244;22.530;2022-09-28T00:08:51;7.35;;;5.50;;
56997;SDS011;42890;44.244;22.530;2022-09-28T00:11:18;6.05;;;5.43;;
56997;SDS011;42890;44.244;22.530;2022-09-28T00:13:47;7.47;;;4.90;;
56997;SDS011;42890;44.244;22.530;2022-09-28T00:16:14;9.20;;;4.82;;
56997;SDS011;42890;44.244;22.530;2022-09-28T00:18:40;6.85;;;5.15;;
56997;SDS011;42890;44.244;22.530;2022-09-28T00:21:08;7.80;;;5.65;;
56997;SDS011;42890;44.244;22.530;2022-09-28T00:23:35;8.00;;;4.95;;
56997;SDS011;42890;44.244;22.530;2022-09-28T00:26:20;4.97;;;4.45;;
56997;SDS011;42890;44.244;22.530;2022-09-28T00:28:46;5.47;;;4.22;;
56997;SDS011;42890;44.244;22.530;2022-09-28T00:31:12;7.13;;;6.43;;
56997;SDS011;42890;44.244;22.530;2022-09-28T00:33:39;8.10;;;5.97;;
56997;SDS011;42890;44.244;22.530;2022-09-28T00:36:05;7.50;;;6.40;;
56997;SDS011;42890;44.244;22.530;2022-09-28T00:38:32;10.93;;;6.25;;
56997;SDS011;42890;44.244;22.530;2022-09-28T00:40:58;14.27;;;5.32;;
56997;SDS011;42890;44.244;22.530;2022-09-28T00:43:24;6.18;;;4.75;;
56997;SDS011;42890;44.244;22.530;2022-09-28T00:46:04;14.20;;;7.18;;
56997;SDS011;42890;44.244;22.530;2022-09-28T00:48:31;10.50;;;5.20;;
56997;SDS011;42890;44.244;22.530;2022-09-28T00:50:59;5.35;;;4.20;;
56997;SDS011;42890;44.244;22.530;2022-09-28T00:53:28;8.57;;;3.40;;
56997;SDS011;42890;44.244;22.530;2022-09-28T00:55:57;4.55;;;3.33;;
56997;SDS011;42890;44.244;22.530;2022-09-28T00:58:26;4.82;;;3.83;;
56997;SDS011;42890;44.244;22.530;2022-09-28T01:00:54;12.43;;;3.63;;
56997;SDS011;42890;44.244;22.530;2022-09-28T01:03:22;11.45;;;5.15;;
56997;SDS011;42890;44.244;22.530;2022-09-28T01:05:49;13.45;;;4.50;;
56997;SDS011;42890;44.244;22.530;2022-09-28T01:08:16;6.20;;;5.40;;
56997;SDS011;42890;44.244;22.530;2022-09-28T01:10:45;8.73;;;5.22;;
56997;SDS011;42890;44.244;22.530;2022-09-28T01:13:11;4.35;;;3.88;;
56997;SDS011;42890;44.244;22.530;2022-09-28T01:15:41;7.22;;;4.32;;
56997;SDS011;42890;44.244;22.530;2022-09-28T01:18:12;6.07;;;4.25;;
56997;SDS011;42890;44.244;22.530;2022-09-28T01:28:17;7.78;;;4.80;;
56997;SDS011;42890;44.244;22.530;2022-09-28T01:30:52;8.23;;;5.32;;
56997;SDS011;42890;44.244;22.530;2022-09-28T01:33:21;5.93;;;4.90;;
56997;SDS011;42890;44.244;22.530;2022-09-28T01:36:32;6.55;;;4.82;;
56997;SDS011;42890;44.244;22.530;2022-09-28T01:38:42;6.55;;;5.63;;
56997;SDS011;42890;44.244;22.530;2022-09-28T01:41:09;13.27;;;7.13;;
56997;SDS011;42890;44.244;22.530;2022-09-28T01:43:38;9.95;;;8.10;;
56997;SDS011;42890;44.244;22.530;2022-09-28T01:46:06;9.32;;;8.30;;
56997;SDS011;42890;44.244;22.530;2022-09-28T01:51:06;13.40;;;8.95;;
56997;SDS011;42890;44.244;22.530;2022-09-28T01:53:40;10.18;;;9.15;;
56997;SDS011;42890;44.244;22.530;2022-09-28T01:56:09;33.22;;;11.63;;
56997;SDS011;42890;44.244;22.530;2022-09-28T02:01:05;9.82;;;8.15;;
56997;SDS011;42890;44.244;22.530;2022-09-28T02:03:40;47.25;;;10.52;;
56997;SDS011;42890;44.244;22.530;2022-09-28T02:06:32;55.63;;;12.02;;
56997;SDS011;42890;44.244;22.530;2022-09-28T02:09:03;18.25;;;12.45;;
56997;SDS011;42890;44.244;22.530;2022-09-28T02:11:32;27.52;;;7.25;;
56997;SDS011;42890;44.244;22.530;2022-09-28T02:14:04;7.32;;;5.32;;
56997;SDS011;42890;44.244;22.530;2022-09-28T02:19:04;7.63;;;6.93;;
56997;SDS011;42890;44.244;22.530;2022-09-28T02:21:34;8.73;;;6.18;;
56997;SDS011;42890;44.244;22.530;2022-09-28T02:24:04;7.97;;;6.22;;
56997;SDS011;42890;44.244;22.530;2022-09-28T02:26:34;10.48;;;8.25;;
56997;SDS011;42890;44.244;22.530;2022-09-28T02:29:00;11.07;;;8.95;;
56997;SDS011;42890;44.244;22.530;2022-09-28T02:31:27;16.92;;;9.20;;
56997;SDS011;42890;44.244;22.530;2022-09-28T02:33:53;12.95;;;9.57;;
56997;SDS011;42890;44.244;22.530;2022-09-28T02:36:21;16.23;;;11.90;;
56997;SDS011;42890;44.244;22.530;2022-09-28T02:38:48;9.98;;;8.55;;
56997;SDS011;42890;44.244;22.530;2022-09-28T02:41:36;11.80;;;8.30;;
56997;SDS011;42890;44.244;22.530;2022-09-28T02:46:47;9.32;;;4.53;;
56997;SDS011;42890;44.244;22.530;2022-09-28T02:54:31;7.30;;;4.80;;
56997;SDS011;42890;44.244;22.530;2022-09-28T03:05:05;6.35;;;5.47;;
56997;SDS011;42890;44.244;22.530;2022-09-28T03:07:36;7.25;;;4.60;;
56997;SDS011;42890;44.244;22.530;2022-09-28T03:10:07;9.40;;;3.90;;
56997;SDS011;42890;44.244;22.530;2022-09-28T03:12:33;4.95;;;4.45;;
56997;SDS011;42890;44.244;22.530;2022-09-28T03:15:08;5.97;;;4.20;;
56997;SDS011;42890;44.244;22.530;2022-09-28T03:17:38;4.30;;;3.90;;
56997;SDS011;42890;44.244;22.530;2022-09-28T03:20:04;4.72;;;4.00;;
56997;SDS011;42890;44.244;22.530;2022-09-28T03:22:30;4.10;;;3.75;;
56997;SDS011;42890;44.244;22.530;2022-09-28T03:24:57;3.53;;;3.22;;
56997;SDS011;42890;44.244;22.530;2022-09-28T03:27:23;9.18;;;3.53;;
56997;SDS011;42890;44.244;22.530;2022-09-28T03:29:49;4.13;;;3.30;;
56997;SDS011;42890;44.244;22.530;2022-09-28T03:32:15;4.38;;;4.07;;
56997;SDS011;42890;44.244;22.530;2022-09-28T03:34:41;6.72;;;3.17;;
56997;SDS011;42890;44.244;22.530;2022-09-28T03:37:07;6.75;;;3.38;;
56997;SDS011;42890;44.244;22.530;2022-09-28T03:39:36;7.72;;;4.45;;
56997;SDS011;42890;44.244;22.530;2022-09-28T03:42:03;6.80;;;4.10;;
56997;SDS011;42890;44.244;22.530;2022-09-28T03:44:29;4.90;;;3.90;;
56997;SDS011;42890;44.244;22.530;2022-09-28T03:46:56;10.90;;;3.30;;
56997;SDS011;42890;44.244;22.530;2022-09-28T03:49:22;6.35;;;3.72;;
56997;SDS011;42890;44.244;22.530;2022-09-28T03:51:48;5.43;;;3.78;;
56997;SDS011;42890;44.244;22.530;2022-09-28T03:54:15;4.07;;;3.58;;
56997;SDS011;42890;44.244;22.530;2022-09-28T03:56:41;10.30;;;7.78;;
56997;SDS011;42890;44.244;22.530;2022-09-28T03:59:07;29.13;;;23.75;;
56997;SDS011;42890;44.244;22.530;2022-09-28T04:01:33;35.58;;;25.15;;
56997;SDS011;42890;44.244;22.530;2022-09-28T04:03:59;15.82;;;12.73;;
56997;SDS011;42890;44.244;22.530;2022-09-28T04:06:25;12.30;;;7.40;;
56997;SDS011;42890;44.244;22.530;2022-09-28T04:08:52;11.57;;;7.65;;
56997;SDS011;42890;44.244;22.530;2022-09-28T04:11:18;15.13;;;10.48;;
56997;SDS011;42890;44.244;22.530;2022-09-28T04:13:46;16.10;;;11.02;;
56997;SDS011;42890;44.244;22.530;2022-09-28T04:16:16;17.33;;;14.15;;
56997;SDS011;42890;44.244;22.530;2022-09-28T04:18:42;15.40;;;13.38;;
56997;SDS011;42890;44.244;22.530;2022-09-28T04:21:10;18.80;;;14.63;;
56997;SDS011;42890;44.244;22.530;2022-09-28T04:23:36;23.88;;;17.80;;
56997;SDS011;42890;44.244;22.530;2022-09-28T04:26:04;22.10;;;18.17;;
56997;SDS011;42890;44.244;22.530;2022-09-28T04:28:30;19.15;;;15.98;;
56997;SDS011;42890;44.244;22.530;2022-09-28T04:31:16;18.25;;;12.00;;
56997;SDS011;42890;44.244;22.530;2022-09-28T04:33:42;18.88;;;16.98;;
56997;SDS011;42890;44.244;22.530;2022-09-28T04:36:08;11.95;;;9.23;;
56997;SDS011;42890;44.244;22.530;2022-09-28T04:38:35;10.27;;;9.27;;
56997;SDS011;42890;44.244;22.530;2022-09-28T04:41:01;10.73;;;8.30;;
56997;SDS011;42890;44.244;22.530;2022-09-28T04:43:27;8.75;;;6.65;;
56997;SDS011;42890;44.244;22.530;2022-09-28T04:45:57;6.80;;;6.13;;
56997;SDS011;42890;44.244;22.530;2022-09-28T04:48:24;8.88;;;6.05;;
56997;SDS011;42890;44.244;22.530;2022-09-28T04:50:54;14.52;;;6.93;;
56997;SDS011;42890;44.244;22.530;2022-09-28T04:53:21;8.93;;;6.57;;
56997;SDS011;42890;44.244;22.530;2022-09-28T04:56:00;10.40;;;6.03;;
56997;SDS011;42890;44.244;22.530;2022-09-28T04:58:27;6.40;;;5.90;;
56997;SDS011;42890;44.244;22.530;2022-09-28T05:00:56;17.85;;;7.53;;
56997;SDS011;42890;44.244;22.530;2022-09-28T05:03:22;9.43;;;7.30;;
56997;SDS011;42890;44.244;22.530;2022-09-28T05:05:48;10.73;;;7.78;;
56997;SDS011;42890;44.244;22.530;2022-09-28T05:08:15;14.88;;;10.50;;
56997;SDS011;42890;44.244;22.530;2022-09-28T05:10:41;12.18;;;11.02;;
56997;SDS011;42890;44.244;22.530;2022-09-28T05:13:08;16.05;;;12.27;;
56997;SDS011;42890;44.244;22.530;2022-09-28T05:15:35;16.23;;;14.63;;
56997;SDS011;42890;44.244;22.530;2022-09-28T05:18:01;20.15;;;18.02;;
56997;SDS011;42890;44.244;22.530;2022-09-28T05:20:27;23.40;;;19.35;;
56997;SDS011;42890;44.244;22.530;2022-09-28T05:22:54;18.15;;;15.10;;
56997;SDS011;42890;44.244;22.530;2022-09-28T05:25:20;13.60;;;10.50;;
56997;SDS011;42890;44.244;22.530;2022-09-28T05:27:46;11.65;;;8.45;;
56997;SDS011;42890;44.244;22.530;2022-09-28T05:30:12;10.10;;;6.80;;
56997;SDS011;42890;44.244;22.530;2022-09-28T05:32:39;13.63;;;7.50;;
56997;SDS011;42890;44.244;22.530;2022-09-28T05:35:06;9.82;;;7.85;;
56997;SDS011;42890;44.244;22.530;2022-09-28T05:37:32;9.93;;;6.30;;
56997;SDS011;42890;44.244;22.530;2022-09-28T05:40:00;6.45;;;5.85;;
56997;SDS011;42890;44.244;22.530;2022-09-28T05:42:28;9.27;;;5.90;;
56997;SDS011;42890;44.244;22.530;2022-09-28T05:44:54;6.53;;;6.07;;
56997;SDS011;42890;44.244;22.530;2022-09-28T05:47:22;7.28;;;6.60;;
56997;SDS011;42890;44.244;22.530;2022-09-28T05:49:49;10.95;;;5.68;;
56997;SDS011;42890;44.244;22.530;2022-09-28T05:52:15;8.90;;;4.50;;
56997;SDS011;42890;44.244;22.530;2022-09-28T05:54:41;7.72;;;5.70;;
56997;SDS011;42890;44.244;22.530;2022-09-28T05:57:08;8.75;;;7.95;;
56997;SDS011;42890;44.244;22.530;2022-09-28T05:59:34;9.90;;;8.90;;
56997;SDS011;42890;44.244;22.530;2022-09-28T06:02:00;11.00;;;9.85;;
56997;SDS011;42890;44.244;22.530;2022-09-28T06:04:27;10.05;;;8.65;;
56997;SDS011;42890;44.244;22.530;2022-09-28T06:06:53;7.57;;;6.40;;
56997;SDS011;42890;44.244;22.530;2022-09-28T06:09:19;8.10;;;4.57;;
56997;SDS011;42890;44.244;22.530;2022-09-28T06:11:48;7.75;;;5.40;;
56997;SDS011;42890;44.244;22.530;2022-09-28T06:14:14;11.80;;;6.60;;
56997;SDS011;42890;44.244;22.530;2022-09-28T06:16:40;10.13;;;9.13;;
56997;SDS011;42890;44.244;22.530;2022-09-28T06:19:09;11.50;;;10.05;;
56997;SDS011;42890;44.244;22.530;2022-09-28T06:21:36;55.03;;;49.33;;
56997;SDS011;42890;44.244;22.530;2022-09-28T06:24:03;28.15;;;22.77;;
56997;SDS011;42890;44.244;22.530;2022-09-28T06:26:29;21.27;;;16.00;;
56997;SDS011;42890;44.244;22.530;2022-09-28T06:28:56;14.75;;;11.90;;
56997;SDS011;42890;44.244;22.530;2022-09-28T06:31:24;9.77;;;8.93;;
56997;SDS011;42890;44.244;22.530;2022-09-28T06:33:51;9.32;;;7.65;;
56997;SDS011;42890;44.244;22.530;2022-09-28T06:36:18;8.32;;;6.53;;
56997;SDS011;42890;44.244;22.530;2022-09-28T06:38:45;18.50;;;10.70;;
56997;SDS011;42890;44.244;22.530;2022-09-28T06:41:11;12.50;;;9.27;;
56997;SDS011;42890;44.244;22.530;2022-09-28T06:43:37;15.07;;;9.77;;
56997;SDS011;42890;44.244;22.530;2022-09-28T06:46:04;32.20;;;19.88;;
56997;SDS011;42890;44.244;22.530;2022-09-28T06:48:30;18.30;;;12.82;;
56997;SDS011;42890;44.244;22.530;2022-09-28T06:50:58;29.05;;;17.05;;
56997;SDS011;42890;44.244;22.530;2022-09-28T06:53:25;17.10;;;13.30;;
56997;SDS011;42890;44.244;22.530;2022-09-28T06:55:52;36.85;;;22.00;;
56997;SDS011;42890;44.244;22.530;2022-09-28T06:58:19;15.52;;;11.05;;
56997;SDS011;42890;44.244;22.530;2022-09-28T07:00:46;41.50;;;27.65;;
56997;SDS011;42890;44.244;22.530;2022-09-28T07:03:13;16.73;;;11.82;;
56997;SDS011;42890;44.244;22.530;2022-09-28T07:05:40;14.50;;;9.35;;
56997;SDS011;42890;44.244;22.530;2022-09-28T07:08:07;10.02;;;8.90;;
56997;SDS011;42890;44.244;22.530;2022-09-28T07:10:33;8.50;;;7.43;;
56997;SDS011;42890;44.244;22.530;2022-09-28T07:13:00;14.35;;;12.57;;
56997;SDS011;42890;44.244;22.530;2022-09-28T07:15:27;20.13;;;14.95;;
56997;SDS011;42890;44.244;22.530;2022-09-28T07:17:57;10.82;;;9.10;;
56997;SDS011;42890;44.244;22.530;2022-09-28T07:20:24;9.98;;;8.15;;
56997;SDS011;42890;44.244;22.530;2022-09-28T07:22:53;8.35;;;6.88;;
56997;SDS011;42890;44.244;22.530;2022-09-28T07:25:20;7.72;;;7.00;;
56997;SDS011;42890;44.244;22.530;2022-09-28T07:27:47;11.40;;;7.53;;
56997;SDS011;42890;44.244;22.530;2022-09-28T07:30:13;8.70;;;7.50;;
56997;SDS011;42890;44.244;22.530;2022-09-28T07:32:39;12.48;;;7.63;;
56997;SDS011;42890;44.244;22.530;2022-09-28T07:35:05;12.38;;;8.13;;
56997;SDS011;42890;44.244;22.530;2022-09-28T07:37:34;10.63;;;7.68;;
56997;SDS011;42890;44.244;22.530;2022-09-28T07:40:04;15.32;;;7.97;;
56997;SDS011;42890;44.244;22.530;2022-09-28T07:42:49;9.30;;;6.40;;
56997;SDS011;42890;44.244;22.530;2022-09-28T07:45:16;11.07;;;6.93;;
56997;SDS011;42890;44.244;22.530;2022-09-28T07:47:42;24.77;;;12.10;;
56997;SDS011;42890;44.244;22.530;2022-09-28T07:50:10;14.50;;;9.00;;
56997;SDS011;42890;44.244;22.530;2022-09-28T07:52:36;7.32;;;5.78;;
56997;SDS011;42890;44.244;22.530;2022-09-28T07:55:02;6.93;;;4.80;;
56997;SDS011;42890;44.244;22.530;2022-09-28T07:57:29;7.15;;;5.20;;
56997;SDS011;42890;44.244;22.530;2022-09-28T07:59:59;6.20;;;4.70;;
56997;SDS011;42890;44.244;22.530;2022-09-28T08:02:26;6.82;;;4.40;;
56997;SDS011;42890;44.244;22.530;2022-09-28T08:04:52;7.03;;;4.65;;
56997;SDS011;42890;44.244;22.530;2022-09-28T08:07:18;6.25;;;4.60;;
56997;SDS011;42890;44.244;22.530;2022-09-28T08:09:47;6.68;;;5.03;;
56997;SDS011;42890;44.244;22.530;2022-09-28T08:12:13;6.32;;;4.63;;
56997;SDS011;42890;44.244;22.530;2022-09-28T08:14:39;5.90;;;5.32;;
56997;SDS011;42890;44.244;22.530;2022-09-28T08:17:06;5.85;;;5.20;;
56997;SDS011;42890;44.244;22.530;2022-09-28T08:19:32;5.50;;;4.85;;
56997;SDS011;42890;44.244;22.530;2022-09-28T08:22:17;7.18;;;5.15;;
56997;SDS011;42890;44.244;22.530;2022-09-28T08:24:44;6.88;;;4.75;;
56997;SDS011;42890;44.244;22.530;2022-09-28T08:27:11;6.88;;;5.10;;
56997;SDS011;42890;44.244;22.530;2022-09-28T08:29:37;5.20;;;4.70;;
56997;SDS011;42890;44.244;22.530;2022-09-28T08:32:05;5.63;;;4.78;;
56997;SDS011;42890;44.244;22.530;2022-09-28T08:34:37;7.65;;;5.15;;
56997;SDS011;42890;44.244;22.530;2022-09-28T08:37:04;5.03;;;4.63;;
56997;SDS011;42890;44.244;22.530;2022-09-28T08:39:30;7.20;;;4.97;;
56997;SDS011;42890;44.244;22.530;2022-09-28T08:42:14;5.38;;;4.90;;
56997;SDS011;42890;44.244;22.530;2022-09-28T08:44:44;8.20;;;5.20;;
56997;SDS011;42890;44.244;22.530;2022-09-28T08:50:32;6.28;;;4.68;;
56997;SDS011;42890;44.244;22.530;2022-09-28T08:53:01;8.35;;;6.03;;
56997;SDS011;42890;44.244;22.530;2022-09-28T08:55:29;7.57;;;5.03;;
56997;SDS011;42890;44.244;22.530;2022-09-28T09:00:32;5.38;;;4.25;;
56997;SDS011;42890;44.244;22.530;2022-09-28T09:03:04;6.28;;;5.03;;
56997;SDS011;42890;44.244;22.530;2022-09-28T09:05:38;8.02;;;5.10;;
56997;SDS011;42890;44.244;22.530;2022-09-28T09:10:44;8.57;;;4.63;;
56997;SDS011;42890;44.244;22.530;2022-09-28T09:13:27;6.70;;;4.80;;
56997;SDS011;42890;44.244;22.530;2022-09-28T09:20:55;9.93;;;5.75;;
56997;SDS011;42890;44.244;22.530;2022-09-28T09:23:56;7.15;;;5.45;;
56997;SDS011;42890;44.244;22.530;2022-09-28T09:26:19;8.38;;;6.05;;
56997;SDS011;42890;44.244;22.530;2022-09-28T09:37:18;15.15;;;9.70;;
56997;SDS011;42890;44.244;22.530;2022-09-28T09:47:58;12.30;;;8.93;;
56997;SDS011;42890;44.244;22.530;2022-09-28T09:50:29;13.25;;;9.57;;
56997;SDS011;42890;44.244;22.530;2022-09-28T09:52:58;10.30;;;7.90;;
56997;SDS011;42890;44.244;22.530;2022-09-28T09:55:26;8.40;;;7.00;;
56997;SDS011;42890;44.244;22.530;2022-09-28T09:58:04;6.15;;;5.43;;
56997;SDS011;42890;44.244;22.530;2022-09-28T10:00:34;4.95;;;4.38;;
56997;SDS011;42890;44.244;22.530;2022-09-28T10:03:02;8.13;;;4.68;;
56997;SDS011;42890;44.244;22.530;2022-09-28T10:05:29;6.32;;;4.65;;
56997;SDS011;42890;44.244;22.530;2022-09-28T10:10:26;5.80;;;4.13;;
56997;SDS011;42890;44.244;22.530;2022-09-28T10:12:53;6.27;;;4.53;;
56997;SDS011;42890;44.244;22.530;2022-09-28T10:15:24;5.00;;;4.60;;
56997;SDS011;42890;44.244;22.530;2022-09-28T10:17:51;10.10;;;5.53;;
56997;SDS011;42890;44.244;22.530;2022-09-28T10:20:18;8.50;;;5.60;;
56997;SDS011;42890;44.244;22.530;2022-09-28T10:22:44;6.38;;;5.25;;
56997;SDS011;42890;44.244;22.530;2022-09-28T10:25:11;5.63;;;4.82;;
56997;SDS011;42890;44.244;22.530;2022-09-28T10:27:39;7.72;;;5.40;;
56997;SDS011;42890;44.244;22.530;2022-09-28T10:32:44;10.13;;;6.30;;
56997;SDS011;42890;44.244;22.530;2022-09-28T10:43:05;8.93;;;6.28;;
56997;SDS011;42890;44.244;22.530;2022-09-28T10:45:33;26.48;;;5.45;;
56997;SDS011;42890;44.244;22.530;2022-09-28T10:48:03;5.85;;;5.32;;
56997;SDS011;42890;44.244;22.530;2022-09-28T10:50:29;13.25;;;5.57;;
56997;SDS011;42890;44.244;22.530;2022-09-28T10:53:15;8.75;;;5.50;;
56997;SDS011;42890;44.244;22.530;2022-09-28T10:55:47;10.40;;;6.18;;
56997;SDS011;42890;44.244;22.530;2022-09-28T10:58:25;7.15;;;5.97;;
56997;SDS011;42890;44.244;22.530;2022-09-28T11:00:51;10.75;;;5.75;;
56997;SDS011;42890;44.244;22.530;2022-09-28T11:03:24;7.53;;;5.07;;
56997;SDS011;42890;44.244;22.530;2022-09-28T11:05:55;8.55;;;6.20;;
56997;SDS011;42890;44.244;22.530;2022-09-28T11:08:24;8.20;;;5.70;;
56997;SDS011;42890;44.244;22.530;2022-09-28T11:11:04;6.72;;;5.93;;
56997;SDS011;42890;44.244;22.530;2022-09-28T11:13:37;7.68;;;6.82;;
56997;SDS011;42890;44.244;22.530;2022-09-28T11:16:03;9.40;;;6.87;;
56997;SDS011;42890;44.244;22.530;2022-09-28T11:18:29;8.98;;;6.65;;
56997;SDS011;42890;44.244;22.530;2022-09-28T11:21:17;9.95;;;9.05;;
56997;SDS011;42890;44.244;22.530;2022-09-28T11:23:56;8.05;;;6.35;;
56997;SDS011;42890;44.244;22.530;2022-09-28T11:26:25;8.18;;;6.70;;
56997;SDS011;42890;44.244;22.530;2022-09-28T11:28:51;8.13;;;6.28;;
56997;SDS011;42890;44.244;22.530;2022-09-28T11:31:27;6.57;;;5.97;;
56997;SDS011;42890;44.244;22.530;2022-09-28T11:34:01;6.93;;;6.22;;
56997;SDS011;42890;44.244;22.530;2022-09-28T11:36:38;9.20;;;7.20;;
56997;SDS011;42890;44.244;22.530;2022-09-28T11:39:14;7.35;;;5.35;;
56997;SDS011;42890;44.244;22.530;2022-09-28T11:41:53;6.85;;;6.07;;
56997;SDS011;42890;44.244;22.530;2022-09-28T11:44:41;6.75;;;6.00;;
56997;SDS011;42890;44.244;22.530;2022-09-28T11:52:13;6.50;;;5.85;;
56997;SDS011;42890;44.244;22.530;2022-09-28T11:54:43;6.45;;;5.82;;
56997;SDS011;42890;44.244;22.530;2022-09-28T11:57:13;6.72;;;6.13;;
56997;SDS011;42890;44.244;22.530;2022-09-28T11:59:46;7.60;;;6.07;;
56997;SDS011;42890;44.244;22.530;2022-09-28T12:02:22;6.47;;;5.82;;
56997;SDS011;42890;44.244;22.530;2022-09-28T12:04:51;6.63;;;6.03;;
56997;SDS011;42890;44.244;22.530;2022-09-28T12:07:20;10.63;;;6.90;;
56997;SDS011;42890;44.244;22.530;2022-09-28T12:12:34;10.80;;;7.38;;
56997;SDS011;42890;44.244;22.530;2022-09-28T12:15:04;10.90;;;7.55;;
56997;SDS011;42890;44.244;22.530;2022-09-28T12:17:37;13.52;;;12.05;;
56997;SDS011;42890;44.244;22.530;2022-09-28T12:22:39;11.73;;;7.97;;
56997;SDS011;42890;44.244;22.530;2022-09-28T12:25:09;7.85;;;7.05;;
56997;SDS011;42890;44.244;22.530;2022-09-28T12:27:44;9.45;;;7.35;;
56997;SDS011;42890;44.244;22.530;2022-09-28T12:30:12;9.57;;;5.53;;
56997;SDS011;42890;44.244;22.530;2022-09-28T12:32:55;9.18;;;5.15;;
56997;SDS011;42890;44.244;22.530;2022-09-28T12:37:54;12.00;;;5.80;;
56997;SDS011;42890;44.244;22.530;2022-09-28T12:40:26;8.13;;;5.72;;
56997;SDS011;42890;44.244;22.530;2022-09-28T12:50:46;9.00;;;5.90;;
56997;SDS011;42890;44.244;22.530;2022-09-28T13:06:19;6.30;;;5.68;;
56997;SDS011;42890;44.244;22.530;2022-09-28T13:08:52;13.65;;;9.57;;
56997;SDS011;42890;44.244;22.530;2022-09-28T13:11:32;16.77;;;13.07;;
56997;SDS011;42890;44.244;22.530;2022-09-28T13:24:34;6.78;;;3.80;;
56997;SDS011;42890;44.244;22.530;2022-09-28T13:27:02;3.85;;;3.35;;
56997;SDS011;42890;44.244;22.530;2022-09-28T13:29:31;20.73;;;16.50;;
56997;SDS011;42890;44.244;22.530;2022-09-28T13:31:58;4.97;;;4.47;;
56997;SDS011;42890;44.244;22.530;2022-09-28T13:34:27;7.05;;;4.10;;
56997;SDS011;42890;44.244;22.530;2022-09-28T13:42:58;7.13;;;4.25;;
56997;SDS011;42890;44.244;22.530;2022-09-28T14:03:28;8.10;;;4.03;;
56997;SDS011;42890;44.244;22.530;2022-09-28T14:16:43;6.93;;;3.88;;
56997;SDS011;42890;44.244;22.530;2022-09-28T14:19:23;7.00;;;3.88;;
56997;SDS011;42890;44.244;22.530;2022-09-28T14:22:09;10.00;;;4.80;;
56997;SDS011;42890;44.244;22.530;2022-09-28T14:29:52;9.05;;;3.83;;
56997;SDS011;42890;44.244;22.530;2022-09-28T14:34:46;10.82;;;3.60;;
56997;SDS011;42890;44.244;22.530;2022-09-28T14:37:34;6.15;;;3.55;;
56997;SDS011;42890;44.244;22.530;2022-09-28T14:40:18;7.50;;;4.63;;
56997;SDS011;42890;44.244;22.530;2022-09-28T14:45:48;5.57;;;5.00;;
56997;SDS011;42890;44.244;22.530;2022-09-28T14:48:18;7.38;;;5.18;;
56997;SDS011;42890;44.244;22.530;2022-09-28T14:50:44;9.00;;;5.90;;
56997;SDS011;42890;44.244;22.530;2022-09-28T14:53:21;7.85;;;6.05;;
56997;SDS011;42890;44.244;22.530;2022-09-28T14:55:50;7.13;;;5.97;;
56997;SDS011;42890;44.244;22.530;2022-09-28T14:58:26;7.70;;;4.97;;
56997;SDS011;42890;44.244;22.530;2022-09-28T15:01:04;15.65;;;11.45;;
56997;SDS011;42890;44.244;22.530;2022-09-28T15:03:31;17.60;;;11.57;;
56997;SDS011;42890;44.244;22.530;2022-09-28T15:05:58;17.83;;;9.98;;
56997;SDS011;42890;44.244;22.530;2022-09-28T15:08:34;11.70;;;8.13;;
56997;SDS011;42890;44.244;22.530;2022-09-28T15:11:01;10.82;;;6.22;;
56997;SDS011;42890;44.244;22.530;2022-09-28T15:13:27;12.32;;;7.07;;
56997;SDS011;42890;44.244;22.530;2022-09-28T15:15:58;11.07;;;5.90;;
56997;SDS011;42890;44.244;22.530;2022-09-28T15:21:11;12.95;;;5.28;;
56997;SDS011;42890;44.244;22.530;2022-09-28T15:23:38;7.53;;;4.75;;
56997;SDS011;42890;44.244;22.530;2022-09-28T15:26:06;8.82;;;4.55;;
56997;SDS011;42890;44.244;22.530;2022-09-28T15:28:33;6.47;;;5.40;;
56997;SDS011;42890;44.244;22.530;2022-09-28T15:31:00;10.30;;;6.55;;
56997;SDS011;42890;44.244;22.530;2022-09-28T15:33:27;15.27;;;8.80;;
56997;SDS011;42890;44.244;22.530;2022-09-28T15:36:17;15.25;;;8.35;;
56997;SDS011;42890;44.244;22.530;2022-09-28T15:39:19;9.85;;;4.65;;
56997;SDS011;42890;44.244;22.530;2022-09-28T15:41:37;8.80;;;6.47;;
56997;SDS011;42890;44.244;22.530;2022-09-28T15:46:30;13.00;;;6.30;;
56997;SDS011;42890;44.244;22.530;2022-09-28T15:48:59;9.77;;;6.60;;
56997;SDS011;42890;44.244;22.530;2022-09-28T15:51:27;10.65;;;7.43;;
56997;SDS011;42890;44.244;22.530;2022-09-28T15:53:56;10.73;;;7.72;;
56997;SDS011;42890;44.244;22.530;2022-09-28T15:56:24;14.32;;;8.77;;
56997;SDS011;42890;44.244;22.530;2022-09-28T15:59:09;12.70;;;9.38;;
56997;SDS011;42890;44.244;22.530;2022-09-28T16:01:37;17.77;;;13.75;;
56997;SDS011;42890;44.244;22.530;2022-09-28T16:09:33;33.28;;;19.50;;
56997;SDS011;42890;44.244;22.530;2022-09-28T16:12:18;26.70;;;23.55;;
56997;SDS011;42890;44.244;22.530;2022-09-28T16:14:49;24.90;;;19.50;;
56997;SDS011;42890;44.244;22.530;2022-09-28T16:17:32;20.90;;;15.52;;
56997;SDS011;42890;44.244;22.530;2022-09-28T16:20:45;14.25;;;9.75;;
56997;SDS011;42890;44.244;22.530;2022-09-28T16:22:46;14.30;;;9.05;;
56997;SDS011;42890;44.244;22.530;2022-09-28T16:25:19;12.90;;;7.13;;
56997;SDS011;42890;44.244;22.530;2022-09-28T16:27:48;14.57;;;6.13;;
56997;SDS011;42890;44.244;22.530;2022-09-28T16:30:19;8.27;;;6.72;;
56997;SDS011;42890;44.244;22.530;2022-09-28T16:35:19;9.15;;;7.45;;
56997;SDS011;42890;44.244;22.530;2022-09-28T16:38:02;10.32;;;7.63;;
56997;SDS011;42890;44.244;22.530;2022-09-28T16:40:29;15.50;;;8.30;;
56997;SDS011;42890;44.244;22.530;2022-09-28T16:42:57;14.10;;;8.07;;
56997;SDS011;42890;44.244;22.530;2022-09-28T16:45:24;14.07;;;8.30;;
56997;SDS011;42890;44.244;22.530;2022-09-28T16:47:50;13.27;;;8.30;;
56997;SDS011;42890;44.244;22.530;2022-09-28T16:50:17;10.05;;;8.18;;
56997;SDS011;42890;44.244;22.530;2022-09-28T16:52:44;9.48;;;7.50;;
56997;SDS011;42890;44.244;22.530;2022-09-28T16:55:28;13.80;;;7.97;;
56997;SDS011;42890;44.244;22.530;2022-09-28T16:57:54;11.23;;;8.05;;
56997;SDS011;42890;44.244;22.530;2022-09-28T17:00:23;12.32;;;9.40;;
56997;SDS011;42890;44.244;22.530;2022-09-28T17:02:50;12.85;;;8.77;;
56997;SDS011;42890;44.244;22.530;2022-09-28T17:05:16;12.77;;;8.95;;
56997;SDS011;42890;44.244;22.530;2022-09-28T17:07:53;16.58;;;9.95;;
56997;SDS011;42890;44.244;22.530;2022-09-28T17:10:25;18.20;;;11.02;;
56997;SDS011;42890;44.244;22.530;2022-09-28T17:12:53;14.65;;;11.15;;
56997;SDS011;42890;44.244;22.530;2022-09-28T17:15:20;16.15;;;10.98;;
56997;SDS011;42890;44.244;22.530;2022-09-28T17:17:47;12.98;;;11.25;;
56997;SDS011;42890;44.244;22.530;2022-09-28T17:22:39;14.10;;;10.85;;
56997;SDS011;42890;44.244;22.530;2022-09-28T17:25:06;18.50;;;11.73;;
56997;SDS011;42890;44.244;22.530;2022-09-28T17:27:32;14.98;;;11.65;;
56997;SDS011;42890;44.244;22.530;2022-09-28T17:29:58;16.10;;;10.43;;
56997;SDS011;42890;44.244;22.530;2022-09-28T17:32:25;10.52;;;9.45;;
56997;SDS011;42890;44.244;22.530;2022-09-28T17:34:51;11.43;;;8.32;;
56997;SDS011;42890;44.244;22.530;2022-09-28T17:37:18;18.13;;;7.85;;
56997;SDS011;42890;44.244;22.530;2022-09-28T17:39:44;14.48;;;8.95;;